createdAt,value
2022-12-09T00:01:24.501Z,26.85
2022-12-09T00:03:51.668Z,24.48
2022-12-09T00:06:22.172Z,20.35
2022-12-09T00:08:49.842Z,15.57
2022-12-09T00:11:18.013Z,15.80
2022-12-09T00:13:51.903Z,12.38
2022-12-09T00:16:19.820Z,12.88
2022-12-09T00:18:46.956Z,16.33
2022-12-09T00:21:23.635Z,17.07
2022-12-09T00:23:51.491Z,13.05
2022-12-09T00:26:19.371Z,12.45
2022-12-09T00:28:47.097Z,12.50
2022-12-09T00:31:17.756Z,12.23
2022-12-09T00:33:45.997Z,15.40
2022-12-09T00:36:19.524Z,15.23
2022-12-09T00:38:47.404Z,15.45
2022-12-09T00:41:15.576Z,16.42
2022-12-09T00:43:43.395Z,14.05
2022-12-09T00:46:11.896Z,14.98
2022-12-09T00:48:39.353Z,15.20
2022-12-09T00:51:08.190Z,15.88
2022-12-09T00:53:35.273Z,15.77
2022-12-09T00:56:02.310Z,15.60
2022-12-09T00:58:29.154Z,17.30
2022-12-09T01:00:56.785Z,18.27
2022-12-09T01:03:24.224Z,17.65
2022-12-09T01:05:51.569Z,21.40
2022-12-09T01:08:19.293Z,21.65
2022-12-09T01:10:46.399Z,22.33
2022-12-09T01:13:15.996Z,23.48
2022-12-09T01:15:43.809Z,23.90
2022-12-09T01:18:12.190Z,22.35
2022-12-09T01:20:39.424Z,23.70
2022-12-09T01:23:06.511Z,22.65
2022-12-09T01:25:33.413Z,20.80
2022-12-09T01:28:00.414Z,13.55
2022-12-09T01:30:27.756Z,14.13
2022-12-09T01:32:54.655Z,8.85
2022-12-09T01:35:21.764Z,10.60
2022-12-09T01:37:49.243Z,12.65
2022-12-09T01:40:19.112Z,12.75
2022-12-09T01:42:46.439Z,12.45
2022-12-09T01:45:30.611Z,12.85
2022-12-09T01:48:09.260Z,12.02
2022-12-09T01:50:38.455Z,11.80
2022-12-09T01:53:06.785Z,12.93
2022-12-09T01:55:35.309Z,13.05
2022-12-09T01:58:04.327Z,12.75
2022-12-09T02:00:31.360Z,13.98
2022-12-09T02:03:01.591Z,13.53
2022-12-09T02:05:30.393Z,14.30
2022-12-09T02:07:59.520Z,16.33
2022-12-09T02:10:27.414Z,14.27
2022-12-09T02:13:08.948Z,14.65
2022-12-09T02:15:48.115Z,15.73
2022-12-09T02:18:44.441Z,16.50
2022-12-09T02:21:43.360Z,14.97
2022-12-09T02:24:17.501Z,15.32
2022-12-09T02:26:58.683Z,14.98
2022-12-09T02:29:31.873Z,15.48
2022-12-09T02:32:27.368Z,16.00
2022-12-09T02:35:26.874Z,16.23
2022-12-09T02:38:15.687Z,15.40
2022-12-09T02:41:04.322Z,14.70
2022-12-09T02:43:43.637Z,15.10
2022-12-09T02:46:17.413Z,15.02
2022-12-09T02:48:51.105Z,15.63
2022-12-09T02:51:20.050Z,15.80
2022-12-09T02:53:53.140Z,15.75
2022-12-09T02:56:21.742Z,15.82
2022-12-09T02:58:49.314Z,15.25
2022-12-09T03:01:35.020Z,15.70
2022-12-09T03:04:02.786Z,13.57
2022-12-09T03:06:39.115Z,15.70
2022-12-09T03:09:18.497Z,14.75
2022-12-09T03:11:47.195Z,16.10
2022-12-09T03:14:22.772Z,15.40
2022-12-09T03:16:51.956Z,15.80
2022-12-09T03:19:25.451Z,15.25
2022-12-09T03:21:57.267Z,16.73
2022-12-09T03:24:38.168Z,15.70
2022-12-09T03:27:10.319Z,14.10
2022-12-09T03:29:41.414Z,15.23
2022-12-09T03:32:11.819Z,16.10
2022-12-09T03:34:42.401Z,15.18
2022-12-09T03:37:12.136Z,15.93
2022-12-09T03:39:40.785Z,15.52
2022-12-09T03:42:28.417Z,15.80
2022-12-09T03:45:01.135Z,14.73
2022-12-09T03:47:32.006Z,15.27
2022-12-09T03:49:59.314Z,15.77
2022-12-09T03:52:42.069Z,14.77
2022-12-09T03:55:33.255Z,15.15
2022-12-09T03:58:03.552Z,14.93
2022-12-09T04:00:31.231Z,14.93
2022-12-09T04:02:58.168Z,15.48
2022-12-09T04:05:25.198Z,14.97
2022-12-09T04:07:52.485Z,15.67
2022-12-09T04:10:20.128Z,16.00
2022-12-09T04:12:47.397Z,15.33
2022-12-09T04:15:14.738Z,15.13
2022-12-09T04:17:41.793Z,15.90
2022-12-09T04:20:09.806Z,16.00
2022-12-09T04:22:36.987Z,15.07
2022-12-09T04:25:04.570Z,14.35
2022-12-09T04:27:31.910Z,14.07
2022-12-09T04:29:58.953Z,12.98
2022-12-09T04:32:26.084Z,13.82
2022-12-09T04:34:53.140Z,14.15
2022-12-09T04:37:20.262Z,14.50
2022-12-09T04:39:47.375Z,15.85
2022-12-09T04:42:14.609Z,15.48
2022-12-09T04:44:41.479Z,17.45
2022-12-09T04:47:08.857Z,15.95
2022-12-09T04:49:35.826Z,17.45
2022-12-09T04:52:03.248Z,16.80
2022-12-09T04:54:30.335Z,16.10
2022-12-09T04:56:57.206Z,16.08
2022-12-09T04:59:24.407Z,18.80
2022-12-09T05:01:51.622Z,18.70
2022-12-09T05:04:18.859Z,18.95
2022-12-09T05:06:46.317Z,18.50
2022-12-09T05:09:14.332Z,16.48
2022-12-09T05:11:41.622Z,20.58
2022-12-09T05:14:08.576Z,21.33
2022-12-09T05:16:35.785Z,20.80
2022-12-09T05:19:03.232Z,21.35
2022-12-09T05:21:30.803Z,19.17
2022-12-09T05:23:58.416Z,22.15
2022-12-09T05:26:25.833Z,23.55
2022-12-09T05:28:53.082Z,24.33
2022-12-09T05:31:23.049Z,23.17
2022-12-09T05:33:51.540Z,24.80
2022-12-09T05:36:21.743Z,23.80
2022-12-09T05:38:49.245Z,23.38
2022-12-09T05:41:17.809Z,25.73
2022-12-09T05:43:45.805Z,25.17
2022-12-09T05:46:13.937Z,25.38
2022-12-09T05:48:41.655Z,24.52
2022-12-09T05:51:16.054Z,24.52
2022-12-09T05:53:43.387Z,25.23
2022-12-09T05:56:10.723Z,24.88
2022-12-09T05:58:38.016Z,24.63
2022-12-09T06:01:09.473Z,24.10
2022-12-09T06:03:37.719Z,25.58
2022-12-09T06:06:15.891Z,26.70
2022-12-09T06:08:44.483Z,24.95
2022-12-09T06:11:14.645Z,24.87
2022-12-09T06:13:42.453Z,23.73
2022-12-09T06:16:09.843Z,24.27
2022-12-09T06:18:37.827Z,25.25
2022-12-09T06:21:10.767Z,22.65
2022-12-09T06:23:41.373Z,22.13
2022-12-09T06:26:19.765Z,21.23
2022-12-09T06:28:47.454Z,22.30
2022-12-09T06:31:15.534Z,21.73
2022-12-09T06:33:59.647Z,22.63
2022-12-09T06:36:29.182Z,21.85
2022-12-09T06:38:57.914Z,22.67
2022-12-09T06:41:26.204Z,22.63
2022-12-09T06:43:53.273Z,25.00
2022-12-09T06:46:25.387Z,25.92
2022-12-09T06:48:54.165Z,25.60
2022-12-09T06:51:23.668Z,25.80
2022-12-09T06:53:50.908Z,28.17
2022-12-09T06:56:18.317Z,23.77
2022-12-09T06:58:46.700Z,25.40
2022-12-09T07:01:20.013Z,26.38
2022-12-09T07:03:53.391Z,27.13
2022-12-09T07:06:40.969Z,29.00
2022-12-09T07:09:11.408Z,27.55
2022-12-09T07:11:40.361Z,28.30
2022-12-09T07:14:08.110Z,30.38
2022-12-09T07:16:36.151Z,30.95
2022-12-09T07:19:04.390Z,29.23
2022-12-09T07:21:32.049Z,28.95
2022-12-09T07:24:00.775Z,29.85
2022-12-09T07:26:31.936Z,31.20
2022-12-09T07:29:01.280Z,30.83
2022-12-09T07:31:29.480Z,28.57
2022-12-09T07:33:58.728Z,27.67
2022-12-09T07:36:28.015Z,26.65
2022-12-09T07:38:57.208Z,25.70
2022-12-09T07:41:25.249Z,24.75
2022-12-09T07:43:52.404Z,23.27
2022-12-09T07:46:21.032Z,24.63
2022-12-09T07:48:48.459Z,23.40
2022-12-09T07:51:17.017Z,23.83
2022-12-09T07:53:44.566Z,23.53
2022-12-09T07:56:14.742Z,23.88
2022-12-09T07:58:43.275Z,24.02
2022-12-09T08:01:19.082Z,24.35
2022-12-09T08:03:47.698Z,23.50
2022-12-09T08:06:20.391Z,23.45
2022-12-09T08:08:48.444Z,25.08
2022-12-09T08:11:17.927Z,23.67
2022-12-09T08:13:45.671Z,24.23
2022-12-09T08:16:15.060Z,23.13
2022-12-09T08:18:43.086Z,23.30
2022-12-09T08:21:13.999Z,22.83
2022-12-09T08:23:44.146Z,24.33
2022-12-09T08:26:12.812Z,23.13
2022-12-09T08:28:40.385Z,24.08
2022-12-09T08:31:10.316Z,22.70
2022-12-09T08:33:38.285Z,24.42
2022-12-09T08:36:11.616Z,25.23
2022-12-09T08:38:39.461Z,24.17
2022-12-09T08:41:38.597Z,25.38
2022-12-09T08:44:10.556Z,21.05
2022-12-09T08:46:39.836Z,18.98
2022-12-09T08:49:07.606Z,19.47
2022-12-09T08:51:35.844Z,19.85
2022-12-09T08:54:04.263Z,17.65
2022-12-09T08:56:31.511Z,17.52
2022-12-09T08:58:58.818Z,19.40
2022-12-09T09:01:32.640Z,20.38
2022-12-09T09:04:07.575Z,18.48
2022-12-09T09:06:39.497Z,19.33
2022-12-09T09:09:08.195Z,19.92
2022-12-09T09:11:36.707Z,20.83
2022-12-09T09:14:06.624Z,20.17
2022-12-09T09:16:34.711Z,20.38
2022-12-09T09:19:05.857Z,19.87
2022-12-09T09:21:34.731Z,21.00
2022-12-09T09:24:02.346Z,20.83
2022-12-09T09:26:29.641Z,22.20
2022-12-09T09:28:57.356Z,23.48
2022-12-09T09:31:25.158Z,24.08
2022-12-09T09:33:52.967Z,24.25
2022-12-09T09:36:24.816Z,23.63
2022-12-09T09:38:54.209Z,24.30
2022-12-09T09:41:40.261Z,25.88
2022-12-09T09:44:27.503Z,25.35
2022-12-09T09:46:56.520Z,23.17
2022-12-09T09:49:34.732Z,23.13
2022-12-09T09:52:06.595Z,21.85
2022-12-09T09:54:33.733Z,20.80
2022-12-09T09:57:15.778Z,21.13
2022-12-09T10:00:20.154Z,20.67
2022-12-09T10:02:51.495Z,21.63
2022-12-09T10:05:30.421Z,21.15
2022-12-09T10:08:32.142Z,21.38
2022-12-09T10:10:59.759Z,22.30
2022-12-09T10:14:04.978Z,23.40
2022-12-09T10:16:55.293Z,21.92
2022-12-09T10:19:30.918Z,23.25
2022-12-09T10:22:00.744Z,22.40
2022-12-09T10:24:38.870Z,21.95
2022-12-09T10:27:21.961Z,21.98
2022-12-09T10:30:02.561Z,23.20
2022-12-09T10:32:32.537Z,23.98
2022-12-09T10:35:01.208Z,22.42
2022-12-09T10:37:32.258Z,21.50
2022-12-09T10:40:09.848Z,21.58
2022-12-09T10:43:00.194Z,20.88
2022-12-09T10:45:40.154Z,21.83
2022-12-09T10:48:21.289Z,21.43
2022-12-09T10:50:56.811Z,19.60
2022-12-09T10:53:24.613Z,21.63
2022-12-09T10:55:54.075Z,19.83
2022-12-09T10:58:27.495Z,22.02
2022-12-09T11:01:06.164Z,21.40
2022-12-09T11:03:36.148Z,21.60
2022-12-09T11:06:16.304Z,21.40
2022-12-09T11:08:51.576Z,23.02
2022-12-09T11:11:19.780Z,20.48
2022-12-09T11:13:47.562Z,22.25
2022-12-09T11:16:15.029Z,21.75
2022-12-09T11:18:47.231Z,21.33
2022-12-09T11:21:37.108Z,21.85
2022-12-09T11:24:04.919Z,20.88
2022-12-09T11:26:36.646Z,21.90
2022-12-09T11:29:15.841Z,21.40
2022-12-09T11:31:43.674Z,20.90
2022-12-09T11:34:26.280Z,23.17
2022-12-09T11:36:57.725Z,24.58
2022-12-09T11:39:50.383Z,23.40
2022-12-09T11:42:23.129Z,28.02
2022-12-09T11:45:00.469Z,26.95
2022-12-09T11:48:13.488Z,24.60
2022-12-09T11:50:33.184Z,23.95
2022-12-09T11:53:12.592Z,24.17
2022-12-09T11:56:00.752Z,23.42
2022-12-09T11:58:39.251Z,23.90
2022-12-09T12:01:13.020Z,23.63
2022-12-09T12:03:50.154Z,23.38
2022-12-09T12:06:24.956Z,24.40
2022-12-09T12:09:03.085Z,23.35
2022-12-09T12:11:39.740Z,23.90
2022-12-09T12:14:18.964Z,20.67
2022-12-09T12:16:51.841Z,21.02
2022-12-09T12:19:37.471Z,21.80
2022-12-09T12:22:38.448Z,21.17
2022-12-09T12:25:05.696Z,20.70
2022-12-09T12:27:54.053Z,22.00
2022-12-09T12:30:24.121Z,23.00
2022-12-09T12:36:16.275Z,20.05
2022-12-09T12:39:03.191Z,21.30
2022-12-09T12:42:08.366Z,20.65
2022-12-09T12:45:09.097Z,21.30
2022-12-09T12:47:56.002Z,21.10
2022-12-09T12:50:31.709Z,21.55
2022-12-09T12:53:16.742Z,21.90
2022-12-09T12:55:47.327Z,21.95
2022-12-09T12:58:30.546Z,21.65
2022-12-09T13:01:09.684Z,23.15
2022-12-09T13:03:56.952Z,22.73
2022-12-09T13:06:42.143Z,21.88
2022-12-09T13:09:22.087Z,22.08
2022-12-09T13:12:07.795Z,22.50
2022-12-09T13:14:55.132Z,25.35
2022-12-09T13:17:29.554Z,26.23
2022-12-09T13:20:00.799Z,28.00
2022-12-09T13:22:44.277Z,27.92
2022-12-09T13:25:34.461Z,27.15
2022-12-09T13:28:09.585Z,28.48
2022-12-09T13:30:47.366Z,29.67
2022-12-09T13:33:22.014Z,29.25
2022-12-09T13:36:06.443Z,29.83
2022-12-09T13:38:42.682Z,29.42
2022-12-09T13:42:06.846Z,29.92
2022-12-09T13:44:36.733Z,29.30
2022-12-09T13:47:28.275Z,29.42
2022-12-09T13:50:00.949Z,28.13
2022-12-09T13:52:44.966Z,25.52
2022-12-09T13:55:27.071Z,26.35
2022-12-09T13:58:07.683Z,26.70
2022-12-09T14:00:35.547Z,27.75
2022-12-09T14:03:20.634Z,26.17
2022-12-09T14:05:53.750Z,26.85
2022-12-09T14:08:24.804Z,26.15
2022-12-09T14:10:53.038Z,26.13
2022-12-09T14:13:27.548Z,25.83
2022-12-09T14:16:28.419Z,24.83
2022-12-09T14:18:56.810Z,24.95
2022-12-09T14:21:31.563Z,25.92
2022-12-09T14:24:16.298Z,26.38
2022-12-09T14:27:10.483Z,25.67
2022-12-09T14:30:24.541Z,25.55
2022-12-09T14:32:54.722Z,25.98
2022-12-09T14:35:43.788Z,25.80
2022-12-09T14:38:28.526Z,26.60
2022-12-09T14:41:03.058Z,26.30
2022-12-09T14:43:50.299Z,23.88
2022-12-09T14:46:31.335Z,26.52
2022-12-09T14:49:20.261Z,26.07
2022-12-09T14:51:54.330Z,27.92
2022-12-09T14:54:29.192Z,26.65
2022-12-09T14:56:59.002Z,26.35
2022-12-09T14:59:29.676Z,27.05
2022-12-09T15:02:00.776Z,26.67
2022-12-09T15:04:54.806Z,25.60
2022-12-09T15:07:28.144Z,24.48
2022-12-09T15:10:02.344Z,24.90
2022-12-09T15:12:36.569Z,23.73
2022-12-09T15:15:12.372Z,24.92
2022-12-09T15:18:07.750Z,23.60
2022-12-09T15:20:38.066Z,25.00
2022-12-09T15:23:15.901Z,26.45
2022-12-09T15:25:54.778Z,24.77
2022-12-09T15:28:28.278Z,24.85
2022-12-09T15:31:19.068Z,24.65
2022-12-09T15:33:49.639Z,26.25
2022-12-09T15:36:38.664Z,26.27
2022-12-09T15:39:13.399Z,25.80
2022-12-09T15:42:03.818Z,27.13
2022-12-09T15:44:49.878Z,26.20
2022-12-09T15:47:41.667Z,26.85
2022-12-09T15:50:21.545Z,27.45
2022-12-09T15:52:51.422Z,27.00
2022-12-09T15:55:29.553Z,28.67
2022-12-09T15:57:58.943Z,28.02
2022-12-09T16:00:26.650Z,30.08
2022-12-09T16:02:53.852Z,27.27
2022-12-09T16:05:23.678Z,25.90
2022-12-09T16:08:00.215Z,28.95
2022-12-09T16:10:28.962Z,25.27
2022-12-09T16:13:08.156Z,27.73
2022-12-09T16:15:53.578Z,24.60
2022-12-09T16:18:26.684Z,25.08
2022-12-09T16:21:15.120Z,24.45
2022-12-09T16:23:48.678Z,25.98
2022-12-09T16:26:29.761Z,27.13
2022-12-09T16:29:02.168Z,28.58
2022-12-09T16:31:29.560Z,26.80
2022-12-09T16:33:57.491Z,28.85
2022-12-09T16:36:29.018Z,26.40
2022-12-09T16:39:07.871Z,25.52
2022-12-09T16:41:53.018Z,26.25
2022-12-09T16:44:29.257Z,26.25
2022-12-09T16:47:17.444Z,26.65
2022-12-09T16:49:48.531Z,25.83
2022-12-09T16:52:25.939Z,27.33
2022-12-09T16:54:52.891Z,26.30
2022-12-09T16:57:20.369Z,26.05
2022-12-09T16:59:47.583Z,26.42
2022-12-09T17:02:23.767Z,25.48
2022-12-09T17:04:51.869Z,26.80
2022-12-09T17:07:18.958Z,26.02
2022-12-09T17:09:45.855Z,26.60
2022-12-09T17:12:12.785Z,26.65
2022-12-09T17:14:39.754Z,27.58
2022-12-09T17:17:06.830Z,26.90
2022-12-09T17:19:33.743Z,26.20
2022-12-09T17:22:00.606Z,25.45
2022-12-09T17:24:27.606Z,25.73
2022-12-09T17:26:54.536Z,26.20
2022-12-09T17:29:21.371Z,26.33
2022-12-09T17:31:50.200Z,27.80
2022-12-09T17:34:17.586Z,26.70
2022-12-09T17:36:44.820Z,26.13
2022-12-09T17:39:15.410Z,24.75
2022-12-09T17:41:42.998Z,25.60
2022-12-09T17:44:10.042Z,25.35
2022-12-09T17:46:37.056Z,28.25
2022-12-09T17:49:06.623Z,26.67
2022-12-09T17:51:36.395Z,26.52
2022-12-09T17:54:04.131Z,27.33
2022-12-09T17:56:33.074Z,26.58
2022-12-09T17:59:09.153Z,26.50
2022-12-09T18:01:37.543Z,25.08
2022-12-09T18:04:10.221Z,27.20
2022-12-09T18:06:39.175Z,27.35
2022-12-09T18:09:08.145Z,27.85
2022-12-09T18:11:35.439Z,26.00
2022-12-09T18:14:02.450Z,27.17
2022-12-09T18:16:29.788Z,27.63
2022-12-09T18:19:04.747Z,27.92
2022-12-09T18:21:33.477Z,28.00
2022-12-09T18:24:00.416Z,26.27
2022-12-09T18:26:31.380Z,26.33
2022-12-09T18:29:00.196Z,26.48
2022-12-09T18:31:27.626Z,26.10
2022-12-09T18:33:54.627Z,25.05
2022-12-09T18:36:26.331Z,25.67
2022-12-09T18:38:58.113Z,25.42
2022-12-09T18:41:30.557Z,26.60
2022-12-09T18:43:59.607Z,25.83
2022-12-09T18:46:30.274Z,26.45
2022-12-09T18:48:57.923Z,25.57
2022-12-09T18:51:25.000Z,26.55
2022-12-09T18:53:51.927Z,26.60
2022-12-09T18:56:18.812Z,25.98
2022-12-09T19:01:34.205Z,25.00
2022-12-09T19:04:03.382Z,26.08
2022-12-09T19:06:33.424Z,27.20
2022-12-09T19:09:03.872Z,26.63
2022-12-09T19:11:33.509Z,28.48
2022-12-09T19:14:01.506Z,28.40
2022-12-09T19:16:29.012Z,26.35
2022-12-09T19:18:57.068Z,27.55
2022-12-09T19:21:25.084Z,28.77
2022-12-09T19:23:53.099Z,31.10
2022-12-09T19:26:22.973Z,29.27
2022-12-09T19:28:53.111Z,27.05
2022-12-09T19:31:21.335Z,26.67
2022-12-09T19:33:48.506Z,26.67
2022-12-09T19:36:15.785Z,28.83
2022-12-09T19:38:42.681Z,31.52
2022-12-09T19:41:09.612Z,31.17
2022-12-09T19:43:36.825Z,29.17
2022-12-09T19:46:09.268Z,31.25
2022-12-09T19:48:37.465Z,30.50
2022-12-09T19:51:06.879Z,29.02
2022-12-09T19:53:34.283Z,27.80
2022-12-09T19:56:03.265Z,29.02
2022-12-09T19:58:31.263Z,28.98
2022-12-09T20:00:58.747Z,29.02
2022-12-09T20:03:26.012Z,26.15
2022-12-09T20:05:54.891Z,27.60
2022-12-09T20:08:23.284Z,27.52
2022-12-09T20:10:50.310Z,29.57
2022-12-09T20:13:17.309Z,27.77
2022-12-09T20:15:44.165Z,27.92
2022-12-09T20:18:14.112Z,28.05
2022-12-09T20:20:45.691Z,27.30
2022-12-09T20:23:15.771Z,27.27
2022-12-09T20:25:42.663Z,26.67
2022-12-09T20:28:09.556Z,27.42
2022-12-09T20:30:36.407Z,27.58
2022-12-09T20:33:03.366Z,26.20
2022-12-09T20:35:30.257Z,28.35
2022-12-09T20:37:57.170Z,27.23
2022-12-09T20:40:24.084Z,27.02
2022-12-09T20:42:50.913Z,27.83
2022-12-09T20:45:17.792Z,25.67
2022-12-09T20:47:44.671Z,26.48
2022-12-09T20:50:11.938Z,25.88
2022-12-09T20:52:39.131Z,26.80
2022-12-09T20:55:06.526Z,26.33
2022-12-09T20:57:33.398Z,25.65
2022-12-09T21:00:00.296Z,23.92
2022-12-09T21:02:27.153Z,25.88
2022-12-09T21:04:54.047Z,26.13
2022-12-09T21:07:21.501Z,24.98
2022-12-09T21:09:48.407Z,25.15
2022-12-09T21:12:15.255Z,25.65
2022-12-09T21:14:42.081Z,26.20
2022-12-09T21:17:09.318Z,26.45
2022-12-09T21:19:36.343Z,24.27
2022-12-09T21:22:04.498Z,25.52
2022-12-09T21:24:31.863Z,24.80
2022-12-09T21:26:58.936Z,25.23
2022-12-09T21:29:31.640Z,25.33
2022-12-09T21:31:59.548Z,26.17
2022-12-09T21:34:27.219Z,24.67
2022-12-09T21:36:54.067Z,25.50
2022-12-09T21:39:21.059Z,26.55
2022-12-09T21:41:48.113Z,26.52
2022-12-09T21:44:18.168Z,26.00
2022-12-09T21:46:45.317Z,26.55
2022-12-09T21:49:13.498Z,26.95
2022-12-09T21:51:40.685Z,27.63
2022-12-09T21:54:07.686Z,27.00
2022-12-09T21:56:36.110Z,25.37
2022-12-09T21:59:05.747Z,25.05
2022-12-09T22:01:38.683Z,24.70
2022-12-09T22:04:07.933Z,26.53
2022-12-09T22:06:34.996Z,27.73
2022-12-09T22:09:02.824Z,27.48
2022-12-09T22:11:33.712Z,27.25
2022-12-09T22:14:02.149Z,28.08
2022-12-09T22:16:33.409Z,28.15
2022-12-09T22:19:02.083Z,27.95
2022-12-09T22:21:30.982Z,28.40
2022-12-09T22:24:01.151Z,27.80
2022-12-09T22:26:28.060Z,28.30
2022-12-09T22:28:55.535Z,28.02
2022-12-09T22:31:32.010Z,27.30
2022-12-09T22:34:05.318Z,26.08
2022-12-09T22:36:33.041Z,27.92
2022-12-09T22:39:00.235Z,25.98
2022-12-09T22:41:29.898Z,26.63
2022-12-09T22:43:57.400Z,27.15
2022-12-09T22:46:33.889Z,27.58
2022-12-09T22:49:04.627Z,26.83
2022-12-09T22:51:33.331Z,27.10
2022-12-09T22:54:01.723Z,27.20
2022-12-09T22:56:28.642Z,25.25
2022-12-09T22:58:55.556Z,27.63
2022-12-09T23:01:28.424Z,27.67
2022-12-09T23:03:56.718Z,26.08
2022-12-09T23:06:25.355Z,28.25
2022-12-09T23:08:52.911Z,28.15
2022-12-09T23:11:29.094Z,27.45
2022-12-09T23:13:58.006Z,27.20
2022-12-09T23:16:26.309Z,26.85
2022-12-09T23:18:55.714Z,27.83
2022-12-09T23:21:26.122Z,26.65
2022-12-09T23:23:58.410Z,27.25
2022-12-09T23:26:27.982Z,27.48
2022-12-09T23:28:57.157Z,27.67
2022-12-09T23:31:26.618Z,27.83
2022-12-09T23:33:54.678Z,28.88
2022-12-09T23:36:33.287Z,28.55
2022-12-09T23:39:02.185Z,26.90
2022-12-09T23:41:31.105Z,27.63
2022-12-09T23:43:58.335Z,28.23
2022-12-09T23:46:26.917Z,28.80
2022-12-09T23:48:57.404Z,28.10
2022-12-09T23:51:29.268Z,27.75
2022-12-09T23:54:01.148Z,28.48
2022-12-09T23:56:30.354Z,29.20
2022-12-09T23:59:02.950Z,28.60
